Smithers Airport
CYYD : now visible

Airfield :











YOU CAN JOIN US ON...

 
LOGIN :

Register | Disclaimer

   EN    FR    IT 

 









Legend :    VFR   Marginal VFR   IFR   Intensive IFR   Very Intensive IFR
Visi :
Ceiling :
>= 8 km
>= 3000ft
5 to 8 km
1000 to 3000 ft
1500m to 5 km
500 to 1000 ft
800 to 1500m
200 to 500 ft
< 800m
< 200 ft
Symbols :   Thunderstorms  Fog  Heavy snow  Heavy precipitations  Wind > 20 kt






- Airport Elevation : 1712 ft
- IATA code : YYD


CYYD - Smithers

CURRENT METAR :
  • 271300Z 13005KT 15SM SCT020 BKN150 09/08 A2926 RMK SC3AC3 SLP912 DENSITY ALT 2200FT

EXPIRED METARs :
  • 271200Z AUTO 15006KT 9SM SCT091 BKN140 OVC180 10/09 A2922 RMK PCPN 0.8MM PAST HR SLP900 DENSITY ALT 2300FT
  • 271139Z AUTO 13006KT 040V160 9SM FEW038 SCT048 BKN055 OVC089 10/10 A2922 RMK SLP902 DENSITY ALT 2400FT
  • 271129Z AUTO 12005KT 090V190 6SM -RA BR FEW003 SCT035 BKN047 OVC055 10/10 A2922 RMK SLP901 DENSITY ALT 2400FT
  • 271122Z AUTO 15005KT 100V180 3SM RA BR FEW003 SCT016 BKN043 OVC060 10/10 A2923 RMK SLP904 DENSITY ALT 2400FT
  • 271116Z AUTO 14006KT 1 1/4SM -RA BR SCT003 BKN046 OVC055 10/10 A2922 RMK SLP903 DENSITY ALT 2400FT
  • 271108Z AUTO 17003KT 4SM -RA BR BKN003 BKN046 OVC060 10/10 A2922 RMK SLP902 DENSITY ALT 2400FT
  • 271055Z AUTO 15003KT 1 1/2SM -RA BR BKN003 OVC060 10/10 A2921 RMK SLP900 DENSITY ALT 2400FT
  • 271039Z AUTO 14004KT 1 1/4SM -RA BR OVC003 10/10 A2922 RMK SLP902 DENSITY ALT 2400FT
  • 271028Z AUTO 14003KT 3SM RA BR SCT003 OVC006 10/10 A2922 RMK SLP902 DENSITY ALT 2400FT

Expired Forecast.
CZVR FIR / North America



MET'MAP, your aeronautical weather chart ! - Copyright ORBIFLY December 2007 - Disclaimer

ORBIFLY MET'MAP TEAM :

Programming & Development : Alexandra Zaïnal
Concept & original design : Baudouin d'Aumeries
Assistance for programming : Marc-Olivier Méhu
Technical & hardware support : Manuel Goepfert

Contact : metmap@orbifly.com




SOURCES & CREDITS :

   NOAA       Earth
Advisory